Terminal Aerodrome Forecast
Issued by NWS

Home | Current Version | Previous Version | Text Only | Print | Product List | Glossary On
Versions: 1 2 3 4 5 6 7 8 9 10 11 12 13
000
FTAK31 PAJN 281100
TAFAWG
TAF
PAWG 281133Z 2812/2912 27007KT P6SM VCSH OVC030
     FM281700 31007KT P6SM SCT035 BKN070
     FM290400 30003KT P6SM SCT035 SCT070
     FM290800 00000KT P6SM SCT070
      AMD LTD TO CLD VIS AND WIND 2812/2815=

USA.gov is the U.S. government's official web portal to all federal, state and local government web resources and services.